Time;durP1;ratioP1;P1;durP2;ratioP2;P2;SDS_P1;SDS_P2;PMS_P1;PMS_P2;Temp;Humidity;BMP_temperature;BMP_pressure;BME280_temperature;BME280_humidity;BME280_pressure;Samples;Min_cycle;Max_cycle;Signal;HPM_P1;HPM_P2
2022/05/03 00:00:15;;;;;;;17.05;11.27;;;12.70;99.90;;;;;;5070143;28;20033;-85
2022/05/03 00:02:47;;;;;;;19.50;12.38;;;12.70;99.90;;;;;;5048112;28;20021;-85
2022/05/03 00:05:22;;;;;;;18.23;11.68;;;12.70;99.90;;;;;;5065252;28;20053;-83
2022/05/03 00:08:27;;;;;;;16.02;11.35;;;12.60;99.90;;;;;;5075166;28;20037;-82
2022/05/03 00:11:21;;;;;;;15.95;11.52;;;12.60;99.90;;;;;;5078499;28;20013;-83
2022/05/03 00:13:56;;;;;;;16.83;11.98;;;12.50;99.90;;;;;;5078343;28;20037;-82
2022/05/03 00:16:23;;;;;;;17.52;11.95;;;12.50;99.90;;;;;;5061348;28;20028;-81
2022/05/03 00:18:49;;;;;;;14.52;11.07;;;12.50;99.90;;;;;;5078207;28;20032;-82
2022/05/03 00:21:15;;;;;;;14.98;11.68;;;12.40;99.90;;;;;;5034749;28;20076;-84
2022/05/03 00:23:43;;;;;;;15.38;11.50;;;12.40;99.90;;;;;;5071561;28;20266;-85
2022/05/03 00:26:09;;;;;;;15.35;11.23;;;12.40;99.90;;;;;;5075595;28;20396;-84
2022/05/03 00:28:35;;;;;;;17.13;12.25;;;12.40;99.90;;;;;;5057445;28;20025;-84
2022/05/03 00:31:02;;;;;;;25.02;13.10;;;12.40;99.90;;;;;;5058443;28;20029;-83
2022/05/03 00:33:32;;;;;;;17.20;11.88;;;12.30;99.90;;;;;;5059130;28;20077;-81
2022/05/03 00:35:58;;;;;;;16.92;12.38;;;12.30;99.90;;;;;;5077222;28;20099;-83
2022/05/03 00:38:24;;;;;;;17.60;11.82;;;12.30;99.90;;;;;;5069874;28;20033;-85
2022/05/03 00:40:56;;;;;;;17.33;12.63;;;12.30;99.90;;;;;;5067779;28;20025;-85
2022/05/03 00:43:29;;;;;;;15.43;11.70;;;12.20;99.90;;;;;;5068792;28;20025;-84
2022/05/03 00:45:57;;;;;;;15.73;11.57;;;12.20;99.90;;;;;;5076187;28;20013;-83
2022/05/03 00:48:49;;;;;;;15.50;11.77;;;12.20;99.90;;;;;;5072467;28;20021;-84
2022/05/03 00:51:15;;;;;;;15.75;10.95;;;12.10;99.90;;;;;;5072000;28;20021;-85
2022/05/03 00:54:26;;;;;;;17.05;11.15;;;12.10;99.90;;;;;;5067450;28;20111;-84
2022/05/03 00:57:03;;;;;;;18.42;12.00;;;12.10;99.90;;;;;;5065714;28;20032;-84
2022/05/03 00:59:49;;;;;;;17.35;12.25;;;12.00;99.90;;;;;;5064565;28;20039;-83
2022/05/03 01:02:27;;;;;;;20.23;12.32;;;12.00;99.90;;;;;;5046226;28;20096;-83
2022/05/03 01:05:10;;;;;;;15.98;11.73;;;12.00;99.90;;;;;;5076212;28;20048;-81
2022/05/03 01:07:55;;;;;;;19.65;12.57;;;12.00;99.90;;;;;;5077142;28;20029;-82
2022/05/03 01:10:38;;;;;;;15.63;11.73;;;12.00;99.90;;;;;;5053964;28;20037;-85
2022/05/03 01:13:24;;;;;;;20.00;12.70;;;12.00;99.90;;;;;;5064080;28;20435;-83
2022/05/03 01:16:21;;;;;;;17.45;12.45;;;11.90;99.90;;;;;;5063488;28;20029;-84
2022/05/03 01:18:56;;;;;;;15.48;12.07;;;11.90;99.90;;;;;;5038021;28;20065;-85
2022/05/03 01:21:57;;;;;;;;;;;11.90;99.90;;;;;;5044359;28;20039;-83
2022/05/03 01:24:41;;;;;;;21.83;12.60;;;11.90;99.90;;;;;;5020445;28;20009;-85
2022/05/03 01:27:14;;;;;;;16.95;12.52;;;11.80;99.90;;;;;;5062984;28;20063;-85
2022/05/03 01:29:44;;;;;;;16.23;12.23;;;11.80;99.90;;;;;;5066817;28;20033;-85
2022/05/03 01:32:11;;;;;;;20.92;12.98;;;11.80;99.90;;;;;;5074438;28;20025;-80
2022/05/03 01:34:38;;;;;;;17.48;12.60;;;11.80;99.90;;;;;;5074323;28;20037;-81
2022/05/03 01:37:26;;;;;;;19.58;12.88;;;11.80;99.90;;;;;;5069260;28;20039;-86
2022/05/03 01:40:18;;;;;;;17.42;12.38;;;11.80;99.90;;;;;;5064246;28;20047;-84
2022/05/03 01:43:13;;;;;;;17.45;11.57;;;11.80;99.90;;;;;;5045280;28;20025;-85
2022/05/03 01:46:05;;;;;;;22.75;12.73;;;11.80;99.90;;;;;;5065439;22;20092;-85
2022/05/03 01:51:50;;;;;;;23.42;13.27;;;11.70;99.90;;;;;;5067684;28;20047;-84
2022/05/03 01:54:45;;;;;;;16.65;12.65;;;11.70;99.90;;;;;;5072880;28;20062;-85
2022/05/03 01:57:16;;;;;;;21.95;12.65;;;11.60;99.90;;;;;;5061793;28;20025;-84
2022/05/03 02:00:08;;;;;;;16.30;12.02;;;11.60;99.90;;;;;;5060733;28;20037;-84
2022/05/03 02:02:55;;;;;;;19.95;11.80;;;11.60;99.90;;;;;;5043403;28;20062;-85
2022/05/03 02:05:57;;;;;;;18.02;12.15;;;11.50;99.90;;;;;;5043616;28;20511;-84
2022/05/03 02:08:27;;;;;;;15.88;10.57;;;11.50;99.90;;;;;;5059222;28;20029;-85
2022/05/03 02:11:31;;;;;;;14.90;10.50;;;11.50;99.90;;;;;;5077920;28;20043;-85
2022/05/03 02:17:20;;;;;;;13.13;9.85;;;11.40;99.90;;;;;;5077900;28;20024;-84
2022/05/03 02:20:11;;;;;;;16.10;9.45;;;11.50;99.90;;;;;;5076838;28;20036;-84
2022/05/03 02:23:15;;;;;;;17.38;9.10;;;11.50;99.90;;;;;;5064098;28;20112;-84
2022/05/03 02:25:49;;;;;;;14.02;8.30;;;11.50;99.90;;;;;;5072920;28;20017;-84
2022/05/03 02:28:29;;;;;;;12.35;8.93;;;11.40;99.90;;;;;;5069911;28;20207;-83
2022/05/03 02:30:55;;;;;;;12.43;8.40;;;11.40;99.90;;;;;;5062074;28;20029;-84
2022/05/03 02:33:27;;;;;;;12.50;8.85;;;11.40;99.90;;;;;;5046321;28;20089;-84
2022/05/03 02:35:58;;;;;;;12.05;9.07;;;11.40;99.90;;;;;;5063325;28;20040;-84
2022/05/03 02:38:56;;;;;;;15.23;8.93;;;11.40;99.90;;;;;;5066141;28;20060;-85
2022/05/03 02:41:24;;;;;;;15.13;8.80;;;11.40;99.90;;;;;;5055903;28;20044;-82
2022/05/03 02:43:50;;;;;;;12.88;9.35;;;11.50;99.90;;;;;;5065109;28;20021;-84
2022/05/03 02:46:31;;;;;;;12.40;9.13;;;11.50;99.90;;;;;;5063806;28;20114;-84
2022/05/03 02:49:33;;;;;;;14.80;10.27;;;11.50;99.90;;;;;;5043683;28;20037;-84
2022/05/03 02:52:11;;;;;;;14.50;9.07;;;11.40;99.90;;;;;;5022327;28;20037;-84
2022/05/03 02:54:55;;;;;;;15.45;9.15;;;11.40;99.90;;;;;;5041489;28;20088;-83
2022/05/03 02:57:42;;;;;;;15.38;9.23;;;11.40;99.90;;;;;;5041016;28;20036;-84
2022/05/03 03:03:18;;;;;;;14.52;10.00;;;11.30;99.90;;;;;;5071850;28;20086;-85
2022/05/03 03:05:53;;;;;;;13.75;9.75;;;11.30;99.90;;;;;;5070739;28;20029;-84
2022/05/03 03:08:19;;;;;;;14.32;9.32;;;11.30;99.90;;;;;;5047028;28;20061;-84
2022/05/03 03:10:57;;;;;;;13.45;8.93;;;11.20;99.90;;;;;;5062752;28;20512;-84
2022/05/03 03:13:50;;;;;;;12.85;8.93;;;11.10;99.90;;;;;;5062503;28;20056;-83
2022/05/03 03:16:25;;;;;;;14.13;9.35;;;11.10;99.90;;;;;;5059382;28;20035;-84
2022/05/03 03:18:52;;;;;;;12.07;7.53;;;11.00;99.90;;;;;;5076427;28;20056;-84
2022/05/03 03:21:24;;;;;;;14.48;7.35;;;11.00;99.90;;;;;;5074959;28;20020;-84
2022/05/03 03:23:52;;;;;;;11.65;7.85;;;11.00;99.90;;;;;;5074306;28;20013;-86
2022/05/03 03:26:20;;;;;;;12.57;7.70;;;10.90;99.90;;;;;;5062206;28;20032;-84
2022/05/03 03:28:47;;;;;;;10.80;7.70;;;10.90;99.90;;;;;;5058846;28;20029;-86
2022/05/03 03:31:15;;;;;;;10.25;7.50;;;10.90;99.90;;;;;;5060605;28;20025;-86
2022/05/03 03:33:41;;;;;;;11.77;7.60;;;10.90;99.90;;;;;;5046879;28;20087;-86
2022/05/03 03:36:08;;;;;;;13.30;8.02;;;10.90;99.90;;;;;;5065492;28;20020;-84
2022/05/03 03:38:39;;;;;;;13.68;7.78;;;10.80;99.90;;;;;;5056462;28;20025;-85
2022/05/03 03:41:06;;;;;;;11.30;7.50;;;10.80;99.90;;;;;;5031887;28;20036;-84
2022/05/03 03:43:31;;;;;;;12.98;7.63;;;10.80;99.90;;;;;;5058985;28;20013;-84
2022/05/03 03:45:57;;;;;;;8.88;7.32;;;10.80;99.90;;;;;;5071605;28;20040;-86
2022/05/03 03:48:23;;;;;;;16.17;8.65;;;10.70;99.90;;;;;;5046728;28;20029;-85
2022/05/03 03:50:50;;;;;;;13.82;8.85;;;10.70;99.90;;;;;;5065237;28;20025;-84
2022/05/03 03:53:16;;;;;;;16.50;8.85;;;10.70;99.90;;;;;;5065779;28;20096;-85
2022/05/03 03:55:44;;;;;;;13.60;9.13;;;10.70;99.90;;;;;;5065746;28;20037;-85
2022/05/03 03:58:10;;;;;;;12.90;8.82;;;10.70;99.90;;;;;;5063909;28;20032;-86
2022/05/03 04:00:36;;;;;;;12.88;9.13;;;10.70;99.90;;;;;;5062453;28;20475;-85
2022/05/03 04:03:04;;;;;;;14.50;9.27;;;10.70;99.90;;;;;;5045433;28;20029;-85
2022/05/03 04:05:30;;;;;;;13.52;9.77;;;10.70;99.90;;;;;;5063189;28;20064;-85
2022/05/03 04:07:56;;;;;;;17.50;9.48;;;10.70;99.90;;;;;;5064019;28;20155;-84
2022/05/03 04:10:22;;;;;;;13.10;9.80;;;10.70;99.90;;;;;;5062800;28;20409;-83
2022/05/03 04:12:48;;;;;;;17.52;10.20;;;10.70;99.90;;;;;;5063540;28;20021;-86
2022/05/03 04:15:14;;;;;;;12.25;9.07;;;10.70;99.90;;;;;;5073374;28;20116;-86
2022/05/03 04:17:39;;;;;;;17.83;9.73;;;10.70;99.90;;;;;;5065802;28;20021;-85
2022/05/03 04:20:06;;;;;;;20.17;10.63;;;10.70;99.90;;;;;;5067117;28;20027;-84
2022/05/03 04:22:34;;;;;;;16.48;9.75;;;10.80;99.90;;;;;;5067157;28;20081;-85
2022/05/03 04:25:01;;;;;;;13.07;9.40;;;10.80;99.90;;;;;;5030081;28;20064;-84
2022/05/03 04:27:27;;;;;;;13.75;9.65;;;10.80;99.90;;;;;;5064110;28;20025;-85
2022/05/03 04:29:54;;;;;;;14.15;9.25;;;10.80;99.90;;;;;;5066527;28;20550;-84
2022/05/03 04:32:20;;;;;;;13.70;9.35;;;10.90;99.90;;;;;;5077531;28;20044;-84
2022/05/03 04:34:46;;;;;;;17.20;9.50;;;10.90;99.90;;;;;;5071008;28;20036;-85
2022/05/03 04:37:13;;;;;;;15.65;8.88;;;10.90;99.90;;;;;;5059302;28;20025;-85
2022/05/03 04:39:39;;;;;;;14.05;9.57;;;11.00;99.90;;;;;;5075481;28;20037;-85
2022/05/03 04:42:05;;;;;;;18.58;9.32;;;11.10;99.90;;;;;;5073924;28;20073;-85
2022/05/03 04:44:31;;;;;;;14.82;9.68;;;11.20;99.90;;;;;;5074317;28;20032;-84
2022/05/03 04:46:57;;;;;;;15.18;9.60;;;11.30;99.90;;;;;;5068795;28;20028;-86
2022/05/03 04:49:23;;;;;;;12.63;8.82;;;11.30;99.90;;;;;;5053188;28;20016;-84
2022/05/03 04:51:49;;;;;;;13.48;9.38;;;11.40;99.90;;;;;;5076813;28;20024;-87
2022/05/03 04:54:15;;;;;;;14.45;8.60;;;11.60;99.90;;;;;;5056812;28;20029;-85
2022/05/03 04:56:49;;;;;;;12.63;9.05;;;11.70;99.90;;;;;;5074418;28;20025;-86
2022/05/03 04:59:14;;;;;;;17.30;10.07;;;11.70;99.90;;;;;;5074176;28;20029;-86
2022/05/03 05:01:40;;;;;;;19.92;11.55;;;11.80;99.90;;;;;;5055600;28;20028;-85
2022/05/03 05:04:07;;;;;;;14.77;8.70;;;11.80;99.90;;;;;;5048004;28;20028;-86
2022/05/03 05:06:33;;;;;;;13.68;7.97;;;12.00;99.90;;;;;;5065873;28;20020;-84
2022/05/03 05:08:58;;;;;;;14.88;8.77;;;12.00;99.90;;;;;;5047314;28;20029;-85
2022/05/03 05:11:24;;;;;;;13.50;8.40;;;12.20;99.90;;;;;;5066013;28;20017;-84
2022/05/03 05:13:50;;;;;;;18.65;9.45;;;12.40;99.90;;;;;;5069353;28;20025;-84
2022/05/03 05:16:17;;;;;;;14.10;8.45;;;12.70;99.90;;;;;;5068235;28;20041;-85
2022/05/03 05:18:43;;;;;;;17.92;9.07;;;12.90;99.90;;;;;;5063916;28;20025;-86
2022/05/03 05:21:10;;;;;;;17.80;9.60;;;13.00;99.90;;;;;;5031008;28;20017;-83
2022/05/03 05:23:37;;;;;;;18.42;9.77;;;13.30;99.90;;;;;;5069077;28;20060;-85
2022/05/03 05:26:03;;;;;;;19.75;10.02;;;13.60;99.90;;;;;;5068889;28;20025;-86
2022/05/03 05:28:28;;;;;;;14.98;9.07;;;13.70;99.90;;;;;;5064787;28;20040;-85
2022/05/03 05:30:55;;;;;;;16.95;9.15;;;13.80;99.90;;;;;;5045650;28;20032;-85
2022/05/03 05:33:22;;;;;;;17.80;9.60;;;13.80;99.90;;;;;;5063868;28;20032;-85
2022/05/03 05:35:49;;;;;;;12.60;9.15;;;13.80;99.90;;;;;;5049583;28;20021;-84
2022/05/03 05:38:17;;;;;;;11.30;8.98;;;13.90;99.90;;;;;;5068006;28;20025;-84
2022/05/03 05:40:46;;;;;;;11.98;8.73;;;13.90;99.90;;;;;;5064461;28;20124;-83
2022/05/03 05:43:13;;;;;;;15.65;9.80;;;13.90;99.90;;;;;;5063281;28;20508;-84
2022/05/03 05:45:39;;;;;;;16.67;9.27;;;14.00;99.90;;;;;;5064226;28;20025;-84
2022/05/03 05:48:06;;;;;;;17.98;9.20;;;14.00;99.90;;;;;;5062755;28;20029;-85
2022/05/03 05:50:32;;;;;;;23.08;9.60;;;14.10;99.90;;;;;;5043912;28;20028;-85
2022/05/03 05:55:42;;;;;;;10.80;8.02;;;14.20;99.90;;;;;;5061716;28;20090;-85
2022/05/03 05:58:09;;;;;;;12.98;8.70;;;14.30;99.90;;;;;;5044499;28;20116;-85
2022/05/03 06:00:35;;;;;;;14.52;8.93;;;14.40;99.90;;;;;;5066736;28;20025;-85
2022/05/03 06:03:01;;;;;;;15.93;9.38;;;14.50;99.90;;;;;;5067552;28;20028;-85
2022/05/03 06:05:27;;;;;;;17.13;8.77;;;14.60;99.90;;;;;;5026537;28;20110;-85
2022/05/03 06:07:53;;;;;;;13.80;8.10;;;14.60;99.90;;;;;;5061642;28;20114;-86
2022/05/03 06:10:23;;;;;;;18.15;9.23;;;14.80;99.90;;;;;;5061563;28;20080;-85
2022/05/03 06:12:49;;;;;;;16.75;8.45;;;14.90;99.90;;;;;;5039349;28;20029;-84
2022/05/03 06:15:16;;;;;;;12.93;7.97;;;15.00;99.90;;;;;;5043502;28;20088;-84
2022/05/03 06:17:42;;;;;;;14.63;9.20;;;15.10;99.90;;;;;;5046178;28;20029;-84
2022/05/03 06:20:09;;;;;;;13.85;8.50;;;15.10;99.90;;;;;;5066678;28;20025;-82
2022/05/03 06:22:34;;;;;;;14.57;8.45;;;15.30;99.90;;;;;;5066056;28;20075;-85
2022/05/03 06:25:00;;;;;;;18.45;9.63;;;15.50;99.90;;;;;;5065166;28;20028;-84
2022/05/03 06:27:26;;;;;;;17.85;9.60;;;15.50;99.90;;;;;;5076997;28;20047;-84
2022/05/03 06:29:52;;;;;;;13.70;9.45;;;15.50;99.90;;;;;;5077175;28;20041;-85
2022/05/03 06:32:17;;;;;;;17.02;9.45;;;15.60;99.90;;;;;;5077421;28;20028;-85
2022/05/03 06:34:43;;;;;;;15.35;9.82;;;15.70;99.90;;;;;;5077041;28;20082;-83
2022/05/03 06:37:09;;;;;;;11.25;9.00;;;15.80;99.90;;;;;;5059505;28;20033;-84
2022/05/03 06:39:38;;;;;;;14.45;9.00;;;15.90;99.90;;;;;;5075990;28;20035;-85
2022/05/03 06:42:05;;;;;;;18.80;11.13;;;16.10;99.90;;;;;;5075423;28;20072;-84
2022/05/03 06:44:31;;;;;;;17.13;11.57;;;16.10;99.90;;;;;;5040986;28;20044;-83
2022/05/03 06:46:57;;;;;;;15.43;10.02;;;16.30;99.90;;;;;;5072334;28;20120;-86
2022/05/03 06:49:23;;;;;;;16.00;9.50;;;16.40;99.90;;;;;;5052406;28;20028;-84
2022/05/03 06:51:50;;;;;;;15.18;9.75;;;16.40;99.90;;;;;;5063361;28;20025;-84
2022/05/03 06:54:16;;;;;;;15.57;8.85;;;16.50;99.90;;;;;;5049098;28;20025;-84
2022/05/03 06:56:41;;;;;;;11.80;8.07;;;16.60;99.90;;;;;;5059993;28;20042;-85
2022/05/03 06:59:07;;;;;;;14.55;8.88;;;16.70;99.90;;;;;;5061811;28;20032;-85
2022/05/03 07:01:33;;;;;;;13.43;9.35;;;16.80;99.90;;;;;;5060733;28;20048;-85
2022/05/03 07:03:59;;;;;;;14.32;8.77;;;16.90;99.90;;;;;;5058932;28;20024;-84
2022/05/03 07:06:25;;;;;;;17.83;9.32;;;17.00;99.90;;;;;;5062188;28;20447;-83
2022/05/03 07:08:51;;;;;;;16.70;9.05;;;17.20;99.90;;;;;;5073175;28;20475;-84
2022/05/03 07:11:16;;;;;;;14.60;9.65;;;17.20;99.90;;;;;;5077201;28;20032;-84
2022/05/03 07:13:43;;;;;;;14.05;9.32;;;17.20;99.90;;;;;;5079092;28;20408;-85
2022/05/03 07:16:09;;;;;;;19.40;10.70;;;17.30;99.90;;;;;;5068836;28;20025;-85
2022/05/03 07:24:04;;;;;;;18.43;10.23;;;17.30;99.90;;;;;;5051771;28;20033;-85
2022/05/03 07:26:30;;;;;;;17.50;11.15;;;17.50;99.90;;;;;;5079283;28;20120;-84
2022/05/03 07:28:56;;;;;;;17.27;10.45;;;17.60;99.90;;;;;;5078885;28;20037;-85
2022/05/03 07:31:23;;;;;;;24.33;15.32;;;17.60;99.90;;;;;;5050892;28;20036;-84
2022/05/03 07:33:49;;;;;;;20.35;10.98;;;17.60;99.90;;;;;;5067046;28;20036;-84
2022/05/03 07:36:18;;;;;;;19.83;11.15;;;17.60;99.90;;;;;;5055949;28;20017;-84
2022/05/03 07:38:43;;;;;;;13.48;9.95;;;17.70;99.90;;;;;;5050377;28;20090;-84
2022/05/03 07:41:10;;;;;;;15.65;10.10;;;17.90;99.90;;;;;;5067219;28;20049;-85
2022/05/03 07:43:36;;;;;;;22.45;11.68;;;18.00;99.90;;;;;;5071083;28;20021;-86
2022/05/03 07:46:02;;;;;;;18.73;9.70;;;18.00;99.90;;;;;;5071561;28;20097;-84
2022/05/03 07:48:28;;;;;;;14.25;10.50;;;18.10;99.90;;;;;;5070519;23;20045;-86
2022/05/03 07:50:54;;;;;;;14.55;10.45;;;18.20;99.90;;;;;;5044233;28;20013;-86
2022/05/03 07:53:20;;;;;;;15.15;10.15;;;18.30;99.90;;;;;;5044146;28;20475;-85
2022/05/03 07:55:48;;;;;;;14.93;9.75;;;18.20;99.90;;;;;;5045724;28;20017;-85
2022/05/03 07:58:14;;;;;;;18.10;11.88;;;18.20;99.90;;;;;;5046799;28;20052;-85
2022/05/03 08:00:40;;;;;;;18.98;10.52;;;18.30;99.90;;;;;;5046154;28;20120;-84
2022/05/03 08:03:06;;;;;;;12.32;9.13;;;18.40;99.90;;;;;;5049149;28;20040;-84
2022/05/03 08:05:32;;;;;;;15.65;9.95;;;18.50;99.90;;;;;;5051353;28;20048;-84
2022/05/03 08:07:58;;;;;;;14.00;10.40;;;18.70;99.90;;;;;;5048676;28;20025;-83
2022/05/03 08:10:24;;;;;;;12.90;9.70;;;18.60;99.90;;;;;;5051727;28;20018;-80
2022/05/03 08:12:52;;;;;;;15.73;9.63;;;18.60;99.90;;;;;;5052808;28;20044;-84
2022/05/03 08:15:22;;;;;;;12.30;9.35;;;18.70;99.90;;;;;;5054219;28;20105;-82
2022/05/03 08:17:49;;;;;;;14.38;9.48;;;18.90;99.90;;;;;;5051172;28;20048;-83
2022/05/03 08:20:15;;;;;;;13.85;8.82;;;19.00;99.90;;;;;;5051058;28;20022;-83
2022/05/03 08:22:44;;;;;;;18.00;9.48;;;19.20;99.90;;;;;;5050046;28;20029;-81
2022/05/03 08:25:10;;;;;;;16.35;8.63;;;19.20;99.90;;;;;;5048043;28;20045;-84
2022/05/03 08:27:38;;;;;;;13.32;9.07;;;19.30;99.90;;;;;;5044624;28;20029;-82
2022/05/03 08:30:08;;;;;;;20.55;9.18;;;19.40;99.90;;;;;;5044423;28;20028;-83
2022/05/03 08:32:34;;;;;;;13.38;8.98;;;19.60;99.90;;;;;;5047005;28;20060;-82
2022/05/03 08:35:00;;;;;;;11.20;8.52;;;19.70;99.90;;;;;;5051256;28;20390;-83
2022/05/03 08:42:55;;;;;;;16.08;7.93;;;20.00;99.90;;;;;;5052228;28;20037;-83
2022/05/03 08:45:21;;;;;;;13.90;8.13;;;20.00;99.90;;;;;;5050640;28;20049;-82
2022/05/03 08:47:48;;;;;;;13.57;7.65;;;20.10;99.90;;;;;;5050392;28;20021;-85
2022/05/03 08:50:19;;;;;;;14.38;7.05;;;20.20;99.90;;;;;;5050662;28;20028;-82
2022/05/03 08:52:54;;;;;;;11.38;6.95;;;20.30;99.90;;;;;;5052648;28;20093;-83
2022/05/03 08:55:21;;;;;;;12.70;7.20;;;20.40;99.90;;;;;;5051232;28;20033;-83
2022/05/03 08:57:48;;;;;;;10.73;7.15;;;20.40;99.80;;;;;;5049391;28;20025;-84
2022/05/03 09:00:16;;;;;;;20.65;8.57;;;20.40;99.50;;;;;;5048099;28;20060;-82
2022/05/03 09:02:49;;;;;;;10.10;6.97;;;20.40;99.30;;;;;;5049770;28;20017;-84
2022/05/03 09:05:16;;;;;;;11.70;6.88;;;20.40;99.70;;;;;;5052188;28;20038;-82
2022/05/03 09:07:51;;;;;;;10.80;6.60;;;20.50;99.10;;;;;;5053450;28;20029;-84
2022/05/03 09:10:26;;;;;;;14.68;6.68;;;20.40;98.80;;;;;;5052266;28;20040;-84
2022/05/03 09:12:55;;;;;;;11.27;6.43;;;20.50;98.40;;;;;;5051438;28;20076;-83
2022/05/03 09:15:32;;;;;;;9.85;5.70;;;20.60;98.10;;;;;;5052202;28;20020;-83
2022/05/03 09:17:59;;;;;;;14.43;5.60;;;20.70;97.90;;;;;;5055616;28;20021;-85
2022/05/03 09:26:18;;;;;;;12.18;5.68;;;21.30;96.40;;;;;;5058419;28;20052;-85
2022/05/03 09:28:52;;;;;;;13.30;5.25;;;21.50;95.30;;;;;;5056688;28;20080;-84
2022/05/03 09:31:33;;;;;;;13.93;5.88;;;21.80;95.10;;;;;;5057324;28;20072;-85
2022/05/03 09:34:27;;;;;;;6.68;4.93;;;22.40;94.00;;;;;;5055177;28;20022;-84
2022/05/03 09:36:55;;;;;;;10.45;4.93;;;23.20;93.40;;;;;;5056442;28;20014;-86
2022/05/03 09:39:23;;;;;;;8.43;4.35;;;24.20;91.60;;;;;;5056577;28;20052;-85
2022/05/03 09:42:09;;;;;;;10.13;4.43;;;25.40;88.30;;;;;;5057471;28;20029;-85
2022/05/03 09:44:37;;;;;;;8.50;3.72;;;26.90;82.80;;;;;;5057231;28;20030;-87
2022/05/03 09:47:11;;;;;;;7.53;3.72;;;27.60;78.20;;;;;;5051452;28;20029;-86
2022/05/03 09:49:40;;;;;;;16.35;7.22;;;28.60;75.40;;;;;;5057871;28;20056;-85
2022/05/03 09:52:09;;;;;;;7.15;4.90;;;28.90;72.40;;;;;;5057742;28;20262;-85
2022/05/03 09:54:48;;;;;;;5.43;3.78;;;29.60;69.70;;;;;;5056239;28;20045;-82
2022/05/03 09:57:22;;;;;;;7.93;4.68;;;30.20;67.80;;;;;;5057216;28;20021;-85
2022/05/03 09:59:53;;;;;;;6.53;4.00;;;31.10;66.30;;;;;;5050518;28;20040;-86
2022/05/03 10:02:21;;;;;;;6.55;3.67;;;31.60;62.90;;;;;;5046373;28;20116;-85
2022/05/03 10:04:48;;;;;;;12.95;3.72;;;32.20;59.60;;;;;;5049828;28;20029;-87
2022/05/03 10:07:14;;;;;;;5.80;3.72;;;33.10;57.80;;;;;;5055299;28;20037;-85
2022/05/03 10:09:45;;;;;;;5.30;3.05;;;33.00;56.90;;;;;;5056212;28;20021;-85
2022/05/03 10:12:13;;;;;;;5.07;3.53;;;34.10;55.30;;;;;;5057117;28;20088;-86
2022/05/03 10:14:40;;;;;;;11.43;3.83;;;34.50;54.70;;;;;;5057266;28;20025;-85
2022/05/03 10:20:38;;;;;;;4.57;3.05;;;36.80;49.00;;;;;;5045568;28;20068;-89
2022/05/03 10:23:17;;;;;;;12.07;3.35;;;37.10;47.70;;;;;;5046965;28;20056;-87
2022/05/03 10:25:43;;;;;;;7.82;2.13;;;36.40;47.40;;;;;;5046166;28;20025;-88
2022/05/03 10:28:08;;;;;;;2.55;1.95;;;36.90;46.80;;;;;;5045617;28;20292;-88
2022/05/03 10:30:38;;;;;;;3.78;2.60;;;38.30;45.10;;;;;;5046302;28;20048;-86
2022/05/03 10:33:19;;;;;;;4.22;2.45;;;37.50;45.10;;;;;;5046290;28;20056;-87
2022/05/03 10:35:47;;;;;;;4.85;3.50;;;37.10;45.30;;;;;;5037782;28;20084;-87
2022/05/03 10:38:13;;;;;;;7.20;5.85;;;36.60;45.40;;;;;;5056290;28;20022;-86
2022/05/03 10:40:44;;;;;;;4.95;2.72;;;36.40;45.50;;;;;;5058940;28;20029;-86
2022/05/03 10:43:13;;;;;;;7.15;2.20;;;36.50;45.50;;;;;;5060455;28;20018;-88
2022/05/03 10:45:56;;;;;;;4.55;2.22;;;37.50;44.60;;;;;;5061335;28;20049;-87
2022/05/03 10:48:27;;;;;;;3.83;2.22;;;38.60;44.20;;;;;;5060845;28;20060;-85
2022/05/03 10:51:00;;;;;;;8.73;2.40;;;39.00;43.40;;;;;;5060810;28;20044;-86
2022/05/03 10:53:28;;;;;;;4.82;3.03;;;39.20;43.30;;;;;;5060072;28;20100;-86
2022/05/03 10:56:04;;;;;;;5.18;2.40;;;38.80;43.10;;;;;;5043527;28;20045;-84
2022/05/03 10:58:33;;;;;;;5.55;2.33;;;38.50;43.10;;;;;;5058049;28;20034;-87
2022/05/03 11:01:09;;;;;;;4.30;2.10;;;38.20;43.30;;;;;;5053967;28;20018;-88
2022/05/03 11:03:38;;;;;;;3.72;1.92;;;38.20;42.60;;;;;;5050020;28;20041;-89
2022/05/03 11:06:19;;;;;;;5.03;1.90;;;37.80;42.50;;;;;;5056851;28;20034;-87
2022/05/03 11:09:02;;;;;;;4.43;2.10;;;38.00;42.40;;;;;;5058845;28;20497;-90
2022/05/03 11:11:53;;;;;;;2.53;1.95;;;38.70;41.80;;;;;;5057599;28;20025;-88
2022/05/03 11:14:22;;;;;;;3.47;1.88;;;38.00;41.30;;;;;;5056906;28;20041;-87
2022/05/03 11:17:04;;;;;;;2.50;2.08;;;38.00;41.50;;;;;;5058369;28;20048;-88
2022/05/03 11:19:50;;;;;;;4.65;1.95;;;38.20;40.90;;;;;;5056549;28;20017;-87
2022/05/03 11:22:20;;;;;;;2.78;2.10;;;39.00;40.80;;;;;;5052873;28;20063;-87
2022/05/03 11:24:49;;;;;;;2.83;1.90;;;39.90;41.10;;;;;;5052076;28;20045;-87
2022/05/03 11:27:18;;;;;;;3.28;1.80;;;39.90;41.00;;;;;;5050565;28;20017;-86
2022/05/03 11:29:46;;;;;;;4.28;2.42;;;39.00;41.40;;;;;;5054530;28;20143;-85
2022/05/03 11:32:14;;;;;;;3.67;2.10;;;38.60;41.00;;;;;;5050715;28;20017;-87
2022/05/03 11:34:41;;;;;;;4.40;2.10;;;37.90;41.30;;;;;;5051551;28;20032;-86
2022/05/03 11:37:07;;;;;;;3.95;1.77;;;38.00;41.20;;;;;;5052219;28;20036;-85
2022/05/03 11:39:36;;;;;;;3.33;1.67;;;38.10;41.10;;;;;;5040001;28;20032;-84
2022/05/03 11:42:10;;;;;;;4.30;1.85;;;38.20;40.90;;;;;;5062990;28;20032;-84
2022/05/03 11:44:43;;;;;;;4.80;1.90;;;38.10;41.40;;;;;;5074165;28;20052;-84
2022/05/03 11:47:10;;;;;;;4.53;1.92;;;38.90;41.00;;;;;;5073187;28;20035;-82
2022/05/03 11:49:36;;;;;;;6.25;2.40;;;40.30;40.30;;;;;;5070784;28;20044;-82
2022/05/03 11:57:36;;;;;;;3.45;1.88;;;40.40;39.70;;;;;;5034568;28;20033;-84
2022/05/03 12:00:05;;;;;;;3.63;1.95;;;40.50;39.30;;;;;;5037240;28;20086;-83
2022/05/03 12:02:33;;;;;;;2.78;2.13;;;39.60;39.30;;;;;;5035791;28;20022;-83
2022/05/03 12:05:04;;;;;;;3.67;2.08;;;37.90;40.00;;;;;;5018561;28;20037;-84
2022/05/03 12:07:50;;;;;;;3.08;2.25;;;36.70;40.20;;;;;;5035502;28;20033;-84
2022/05/03 12:10:24;;;;;;;3.67;1.90;;;37.30;40.10;;;;;;5034228;28;20084;-85
2022/05/03 12:13:08;;;;;;;2.33;1.88;;;38.30;40.00;;;;;;5039091;28;20033;-85
2022/05/03 12:15:40;;;;;;;2.92;1.98;;;38.40;40.00;;;;;;5055442;28;20085;-84
2022/05/03 12:18:14;;;;;;;3.15;1.75;;;38.20;39.90;;;;;;5051799;28;20060;-83
2022/05/03 12:20:48;;;;;;;3.58;1.80;;;37.50;40.10;;;;;;5049675;28;20067;-83
2022/05/03 12:23:18;;;;;;;4.10;2.10;;;37.20;39.50;;;;;;5050183;28;20029;-85
2022/05/03 12:25:49;;;;;;;4.30;1.98;;;34.60;41.10;;;;;;5051572;28;20036;-85
2022/05/03 12:28:16;;;;;;;12.02;2.15;;;31.70;42.30;;;;;;5053836;28;20033;-85
2022/05/03 12:30:42;;;;;;;6.28;2.45;;;29.20;44.80;;;;;;5052617;28;20041;-84
2022/05/03 12:33:11;;;;;;;2.95;1.80;;;28.10;46.30;;;;;;5049226;28;20030;-87
2022/05/03 12:35:42;;;;;;;8.77;2.55;;;27.30;47.10;;;;;;5049640;28;20030;-86
2022/05/03 12:38:13;;;;;;;5.10;2.20;;;27.10;47.90;;;;;;5029142;28;20056;-85
2022/05/03 12:40:51;;;;;;;6.47;2.20;;;26.20;48.30;;;;;;5048504;28;20097;-84
2022/05/03 12:43:23;;;;;;;8.90;2.53;;;24.40;53.70;;;;;;5052327;28;20069;-85
2022/05/03 12:46:04;;;;;;;4.68;2.42;;;23.70;55.50;;;;;;5057125;28;20033;-85
2022/05/03 12:48:38;;;;;;;7.65;2.55;;;23.30;56.20;;;;;;5028147;28;20037;-85
2022/05/03 12:51:05;;;;;;;5.70;2.80;;;23.10;56.80;;;;;;5026180;28;20022;-85
2022/05/03 12:53:34;;;;;;;7.45;2.55;;;23.20;56.80;;;;;;5034619;28;20024;-82
2022/05/03 12:58:48;;;;;;;11.05;2.22;;;23.20;56.80;;;;;;5045298;28;20038;-83
2022/05/03 13:01:15;;;;;;;7.85;2.25;;;22.50;57.10;;;;;;5058496;28;20021;-85
2022/05/03 13:03:41;;;;;;;7.22;2.50;;;22.20;57.50;;;;;;5056962;28;20036;-85
2022/05/03 13:06:08;;;;;;;7.00;2.40;;;22.20;58.50;;;;;;5059709;28;20033;-82
2022/05/03 13:08:34;;;;;;;6.10;2.30;;;21.80;60.30;;;;;;5058736;28;20021;-84
2022/05/03 13:11:10;;;;;;;5.80;2.53;;;21.50;61.00;;;;;;5059142;28;20021;-84
2022/05/03 13:13:38;;;;;;;3.95;2.20;;;21.40;61.50;;;;;;5058873;28;20071;-83
2022/05/03 13:16:04;;;;;;;5.97;2.50;;;21.20;60.90;;;;;;5041671;28;20013;-83
2022/05/03 13:18:30;;;;;;;6.35;2.30;;;21.30;61.20;;;;;;5058646;28;20018;-85
2022/05/03 13:20:56;;;;;;;6.03;2.17;;;21.50;60.80;;;;;;5057870;28;20097;-82
2022/05/03 13:23:22;;;;;;;4.25;2.30;;;21.70;60.80;;;;;;5058193;28;20040;-84
2022/05/03 13:25:48;;;;;;;11.52;2.63;;;22.30;59.40;;;;;;5057500;28;20022;-84
2022/05/03 13:28:14;;;;;;;6.95;2.78;;;23.10;57.40;;;;;;5056640;28;20033;-82
2022/05/03 13:30:43;;;;;;;5.70;2.30;;;23.90;56.30;;;;;;5058099;28;20029;-86
2022/05/03 13:33:09;;;;;;;7.95;2.55;;;24.50;54.80;;;;;;5057976;28;20041;-81
2022/05/03 13:41:03;;;;;;;4.35;1.85;;;25.60;53.30;;;;;;5054116;28;20044;-83
2022/05/03 13:43:29;;;;;;;5.95;1.92;;;26.10;52.00;;;;;;5056860;28;20022;-85